| time (UTC) | temp F | wind direction | speed knots | gust knots | rain 1hr in | rain 24hr in | rain mn in | humidity % | barometer mb |
| 20260507084552 | 55 | 0 | 0.0 | 0.0 | 0.00 | 0.00 | 0.00 | 87 | 1017.0 |
| 20260507083052 | 55 | 0 | 0.0 | 0.0 | 0.00 | 0.00 | 0.00 | 86 | 1017.2 |
| 20260507081553 | 56 | 0 | 0.0 | 0.0 | 0.00 | 0.00 | 0.00 | 86 | 1017.2 |
| 20260507080055 | 56 | 0 | 0.0 | 0.0 | 0.00 | 0.00 | 0.00 | 86 | 1017.2 |
| 20260507074558 | 56 | 0 | 0.0 | 0.0 | 0.00 | 0.00 | 0.00 | 85 | 1017.2 |
| 20260507073053 | 57 | 0 | 0.0 | 0.0 | 0.00 | 0.00 | 0.00 | 85 | 1017.3 |
| 20260507071553 | 57 | 0 | 0.0 | 0.0 | 0.00 | 0.00 | 0.00 | 84 | 1017.3 |
| 20260507070054 | 57 | 0 | 0.0 | 0.0 | 0.00 | 0.00 | 0.00 | 84 | 1017.4 |
| 20260507064606 | 57 | 0 | 0.0 | 0.0 | 0.00 | 0.00 | 0.00 | 83 | 1017.5 |
| 20260507063056 | 58 | 0 | 0.0 | 0.0 | 0.00 | 0.00 | 0.00 | 83 | 1017.5 |
| 20260507061553 | 58 | 0 | 0.0 | 0.0 | 0.00 | 0.00 | 0.00 | 82 | 1017.5 |
| 20260507060054 | 58 | 0 | 0.0 | 0.0 | 0.00 | 0.00 | 0.00 | 82 | 1017.6 |
| 20260507054557 | 58 | 0 | 0.0 | 0.0 | 0.00 | 0.00 | 0.00 | 81 | 1017.5 |
| 20260507053051 | 59 | 0 | 0.0 | 0.0 | 0.00 | 0.00 | 0.00 | 80 | 1017.6 |
| 20260507051551 | 59 | 0 | 0.0 | 0.0 | 0.00 | 0.00 | 0.00 | 79 | 1017.5 |
| 20260507050052 | 59 | 0 | 0.0 | 0.0 | 0.00 | 0.00 | 0.00 | 78 | 1017.3 |
| 20260507044555 | 60 | 0 | 0.0 | 0.0 | 0.00 | 0.00 | 0.00 | 78 | 1017.4 |
| 20260507043100 | 61 | 0 | 0.0 | 0.0 | 0.00 | 0.00 | 0.00 | 77 | 1017.4 |
| 20260507041603 | 61 | 0 | 0.0 | 0.0 | 0.00 | 0.00 | 0.00 | 75 | 1017.2 |
| 20260507040059 | 62 | 0 | 0.0 | 0.9 | 0.00 | 0.00 | 0.00 | 74 | 1017.2 |
| 20260507034557 | 63 | 0 | 0.0 | 1.7 | 0.00 | 0.00 | 0.00 | 73 | 1017.1 |
| 20260507033053 | 63 | 0 | 0.0 | 3.5 | 0.00 | 0.00 | 0.00 | 72 | 1017.0 |
| 20260507031552 | 64 | 0 | 0.0 | 1.7 | 0.00 | 0.00 | 0.00 | 71 | 1016.8 |
| 20260507030058 | 64 | 0 | 0.0 | 1.7 | 0.00 | 0.00 | 0.00 | 70 | 1016.7 |
| 20260507024553 | 65 | 0 | 0.0 | 1.7 | 0.00 | 0.00 | 0.00 | 69 | 1016.6 |
| 20260507023108 | 65 | 0 | 0.9 | 3.5 | 0.00 | 0.00 | 0.00 | 67 | 1016.4 |
| 20260507021553 | 66 | 221 | 0.0 | 3.5 | 0.00 | 0.00 | 0.00 | 65 | 1016.3 |
| 20260507020051 | 67 | 300 | 0.0 | 4.3 | 0.00 | 0.00 | 0.00 | 63 | 1016.1 |
| 20260507014604 | 67 | 180 | 0.0 | 6.1 | 0.00 | 0.00 | 0.00 | 64 | 1016.1 |
| 20260507013109 | 68 | 0 | 0.0 | 4.3 | 0.00 | 0.00 | 0.00 | 62 | 1015.9 |
| 20260507011554 | 69 | 0 | 0.9 | 4.3 | 0.00 | 0.00 | 0.00 | 61 | 1015.8 |
| 20260507010056 | 70 | 259 | 0.0 | 5.2 | 0.00 | 0.00 | 0.00 | 60 | 1015.7 |
| 20260507004557 | 71 | 290 | 0.9 | 7.8 | 0.00 | 0.00 | 0.00 | 57 | 1015.7 |
| 20260507003056 | 71 | 360 | 1.7 | 6.1 | 0.00 | 0.00 | 0.00 | 56 | 1015.8 |
| 20260507001609 | 72 | 130 | 1.7 | 7.8 | 0.00 | 0.00 | 0.00 | 55 | 1015.7 |
| 20260507000059 | 72 | 221 | 0.9 | 7.8 | 0.00 | 0.00 | 0.00 | 53 | 1015.7 |
| 20260506234602 | 73 | 273 | 0.9 | 6.1 | 0.00 | 0.00 | 0.00 | 51 | 1015.6 |
| 20260506233109 | 74 | 222 | 1.7 | 7.8 | 0.00 | 0.00 | 0.00 | 49 | 1015.6 |
| 20260506231552 | 74 | 248 | 0.9 | 5.2 | 0.00 | 0.00 | 0.00 | 47 | 1015.6 |
| 20260506230056 | 75 | 333 | 2.6 | 7.8 | 0.00 | 0.00 | 0.00 | 46 | 1015.8 |
| 20260506224557 | 74 | 136 | 1.7 | 7.0 | 0.00 | 0.00 | 0.00 | 47 | 1015.9 |
| 20260506223111 | 75 | 157 | 0.9 | 9.6 | 0.00 | 0.00 | 0.00 | 47 | 1016.2 |
| 20260506221552 | 75 | 0 | 1.7 | 7.8 | 0.00 | 0.00 | 0.00 | 47 | 1016.3 |
| 20260506220056 | 75 | 224 | 0.9 | 7.8 | 0.00 | 0.00 | 0.00 | 48 | 1016.3 |
| 20260506214604 | 74 | 289 | 1.7 | 8.7 | 0.00 | 0.00 | 0.00 | 50 | 1016.5 |
| 20260506213051 | 74 | 222 | 0.9 | 7.8 | 0.00 | 0.00 | 0.00 | 50 | 1016.7 |
| 20260506211551 | 75 | 292 | 1.7 | 7.8 | 0.00 | 0.00 | 0.00 | 50 | 1016.7 |
| 20260506210052 | 73 | 144 | 1.7 | 8.7 | 0.00 | 0.00 | 0.00 | 54 | 1016.9 |
| 20260506204550 | 73 | 323 | 1.7 | 7.0 | 0.00 | 0.00 | 0.00 | 54 | 1017.0 |
| 20260506203100 | 73 | 81 | 2.6 | 9.6 | 0.00 | 0.00 | 0.00 | 54 | 1017.0 |
| 20260506201549 | 74 | 254 | 0.9 | 7.0 | 0.00 | 0.00 | 0.00 | 55 | 1017.2 |
| 20260506200135 | 73 | 335 | 1.7 | 7.8 | 0.00 | 0.00 | 0.00 | 54 | 1017.4 |
| 20260506194558 | 74 | 277 | 0.9 | 6.1 | 0.00 | 0.00 | 0.00 | 55 | 1017.6 |
| 20260506193051 | 73 | 170 | 0.9 | 4.3 | 0.00 | 0.00 | 0.00 | 54 | 1017.6 |
| 20260506191552 | 73 | 255 | 1.7 | 7.0 | 0.00 | 0.00 | 0.00 | 55 | 1017.6 |
| 20260506190049 | 72 | 155 | 1.7 | 6.1 | 0.00 | 0.00 | 0.00 | 55 | 1017.7 |
| 20260506184553 | 72 | 19 | 0.9 | 6.1 | 0.00 | 0.00 | 0.00 | 51 | 1018.0 |
| 20260506183053 | 72 | 15 | 0.9 | 4.3 | 0.00 | 0.00 | 0.00 | 51 | 1018.0 |
| 20260506181550 | 71 | 0 | 0.9 | 6.1 | 0.00 | 0.00 | 0.00 | 54 | 1018.2 |
| 20260506174549 | 69 | 241 | 0.9 | 6.1 | 0.00 | 0.00 | 0.00 | 54 | 1018.3 |
| 20260506173106 | 68 | 0 | 0.0 | 3.5 | 0.00 | 0.00 | 0.00 | 60 | 1018.2 |
| 20260506171558 | 68 | 39 | 0.9 | 7.8 | 0.00 | 0.00 | 0.00 | 58 | 1018.4 |
| 20260506170052 | 67 | 121 | 0.9 | 4.3 | 0.00 | 0.00 | 0.00 | 61 | 1018.4 |
| 20260506164551 | 66 | 100 | 1.7 | 6.1 | 0.00 | 0.00 | 0.00 | 61 | 1018.3 |
| 20260506163058 | 66 | 123 | 1.7 | 6.1 | 0.00 | 0.00 | 0.00 | 62 | 1018.4 |
| 20260506161555 | 66 | 205 | 0.0 | 5.2 | 0.00 | 0.00 | 0.00 | 64 | 1018.4 |
| 20260506160104 | 65 | 160 | 0.9 | 5.2 | 0.00 | 0.00 | 0.00 | 65 | 1018.5 |
| 20260506154552 | 64 | 0 | 0.9 | 3.5 | 0.00 | 0.00 | 0.00 | 66 | 1018.5 |
| 20260506153058 | 65 | 122 | 0.9 | 2.6 | 0.00 | 0.00 | 0.00 | 66 | 1018.5 |
| 20260506151556 | 63 | 0 | 0.0 | 1.7 | 0.00 | 0.00 | 0.00 | 71 | 1018.5 |
| 20260506150101 | 62 | 0 | 0.0 | 3.5 | 0.00 | 0.00 | 0.00 | 72 | 1018.3 |
| 20260506144555 | 61 | 0 | 0.9 | 1.7 | 0.00 | 0.00 | 0.00 | 69 | 1018.3 |
| 20260506143100 | 60 | 75 | 0.9 | 2.6 | 0.00 | 0.00 | 0.00 | 71 | 1018.3 |
| 20260506141556 | 58 | 0 | 0.0 | 1.7 | 0.00 | 0.00 | 0.00 | 76 | 1018.2 |
| 20260506140059 | 54 | 0 | 0.0 | 0.9 | 0.00 | 0.00 | 0.00 | 86 | 1018.2 |
| 20260506134616 | 51 | 0 | 0.0 | 0.0 | 0.00 | 0.00 | 0.00 | 89 | 1018.2 |
| 20260506133100 | 49 | 0 | 0.0 | 0.9 | 0.00 | 0.00 | 0.00 | 90 | 1018.1 |
| 20260506131609 | 49 | 0 | 0.0 | 0.0 | 0.00 | 0.00 | 0.00 | 89 | 1017.8 |
| 20260506130057 | 49 | 0 | 0.0 | 0.0 | 0.00 | 0.00 | 0.00 | 88 | 1017.7 |
| 20260506124552 | 49 | 0 | 0.0 | 0.9 | 0.00 | 0.00 | 0.00 | 88 | 1017.6 |
| 20260506123055 | 49 | 0 | 0.0 | 0.9 | 0.00 | 0.00 | 0.00 | 88 | 1017.5 |
| 20260506121601 | 49 | 0 | 0.0 | 0.9 | 0.00 | 0.00 | 0.00 | 88 | 1017.3 |
| 20260506120053 | 50 | 0 | 0.0 | 0.0 | 0.00 | 0.00 | 0.00 | 88 | 1017.3 |
| 20260506114553 | 50 | 0 | 0.0 | 0.9 | 0.00 | 0.01 | 0.00 | 88 | 1017.3 |
| 20260506113054 | 50 | 0 | 0.0 | 0.9 | 0.00 | 0.01 | 0.00 | 89 | 1017.3 |
| 20260506111611 | 50 | 0 | 0.0 | 0.0 | 0.00 | 0.01 | 0.00 | 89 | 1017.4 |
| 20260506110057 | 50 | 0 | 0.0 | 0.9 | 0.00 | 0.01 | 0.00 | 90 | 1017.3 |
| 20260506104605 | 51 | 0 | 0.0 | 0.9 | 0.00 | 0.01 | 0.00 | 91 | 1017.4 |
| 20260506103106 | 51 | 0 | 0.0 | 0.9 | 0.00 | 0.01 | 0.00 | 91 | 1017.4 |
| 20260506101554 | 51 | 0 | 0.0 | 0.0 | 0.00 | 0.01 | 0.00 | 91 | 1017.4 |
| 20260506100105 | 51 | 0 | 0.0 | 0.0 | 0.00 | 0.01 | 0.00 | 91 | 1017.5 |
| 20260506094556 | 52 | 0 | 0.0 | 0.0 | 0.00 | 0.01 | 0.00 | 91 | 1017.5 |
| 20260506093104 | 52 | 0 | 0.0 | 0.9 | 0.00 | 0.01 | 0.00 | 91 | 1017.5 |
| 20260506091549 | 52 | 0 | 0.0 | 0.0 | 0.00 | 0.01 | 0.00 | 91 | 1017.6 |
| 20260506090049 | 52 | 0 | 0.0 | 0.9 | 0.00 | 0.01 | 0.00 | 91 | 1017.7 |